sensor_id;sensor_type;location;lat;lon;timestamp;P1;durP1;ratioP1;P2;durP2;ratioP2
70385;SDS011;63206;55.650;37.500;2023-02-01T00:00:50;20.80;;;7.50;;
70385;SDS011;63206;55.650;37.500;2023-02-01T00:03:19;23.85;;;8.20;;
70385;SDS011;63206;55.650;37.500;2023-02-01T00:05:54;22.50;;;8.07;;
70385;SDS011;63206;55.650;37.500;2023-02-01T00:08:20;24.77;;;7.40;;
70385;SDS011;63206;55.650;37.500;2023-02-01T00:10:46;22.58;;;8.25;;
70385;SDS011;63206;55.650;37.500;2023-02-01T00:13:12;21.38;;;7.75;;
70385;SDS011;63206;55.650;37.500;2023-02-01T00:15:38;24.30;;;8.10;;
70385;SDS011;63206;55.650;37.500;2023-02-01T00:18:04;20.48;;;7.82;;
70385;SDS011;63206;55.650;37.500;2023-02-01T00:20:33;25.48;;;8.13;;
70385;SDS011;63206;55.650;37.500;2023-02-01T00:22:59;21.95;;;7.72;;
70385;SDS011;63206;55.650;37.500;2023-02-01T00:25:24;20.40;;;8.02;;
70385;SDS011;63206;55.650;37.500;2023-02-01T00:27:50;22.02;;;7.47;;
70385;SDS011;63206;55.650;37.500;2023-02-01T00:30:19;19.40;;;7.05;;
70385;SDS011;63206;55.650;37.500;2023-02-01T00:32:48;24.42;;;7.88;;
70385;SDS011;63206;55.650;37.500;2023-02-01T00:35:17;17.98;;;7.50;;
70385;SDS011;63206;55.650;37.500;2023-02-01T00:37:45;20.55;;;7.85;;
70385;SDS011;63206;55.650;37.500;2023-02-01T00:40:13;20.25;;;7.20;;
70385;SDS011;63206;55.650;37.500;2023-02-01T00:42:39;17.17;;;6.00;;
70385;SDS011;63206;55.650;37.500;2023-02-01T00:45:08;23.40;;;8.30;;
70385;SDS011;63206;55.650;37.500;2023-02-01T00:47:37;20.10;;;7.40;;
70385;SDS011;63206;55.650;37.500;2023-02-01T00:50:09;22.90;;;8.05;;
70385;SDS011;63206;55.650;37.500;2023-02-01T00:52:35;21.13;;;7.53;;
70385;SDS011;63206;55.650;37.500;2023-02-01T00:55:04;19.92;;;6.95;;
70385;SDS011;63206;55.650;37.500;2023-02-01T00:57:30;19.88;;;6.80;;
70385;SDS011;63206;55.650;37.500;2023-02-01T01:00:02;20.73;;;7.05;;
70385;SDS011;63206;55.650;37.500;2023-02-01T01:02:29;21.10;;;7.03;;
70385;SDS011;63206;55.650;37.500;2023-02-01T01:04:57;20.88;;;7.38;;
70385;SDS011;63206;55.650;37.500;2023-02-01T01:07:23;19.80;;;7.43;;
70385;SDS011;63206;55.650;37.500;2023-02-01T01:09:52;23.17;;;7.10;;
70385;SDS011;63206;55.650;37.500;2023-02-01T01:12:21;19.23;;;7.13;;
70385;SDS011;63206;55.650;37.500;2023-02-01T01:14:49;18.83;;;6.47;;
70385;SDS011;63206;55.650;37.500;2023-02-01T01:17:16;19.52;;;6.97;;
70385;SDS011;63206;55.650;37.500;2023-02-01T01:19:47;22.17;;;7.70;;
70385;SDS011;63206;55.650;37.500;2023-02-01T01:22:21;17.75;;;6.75;;
70385;SDS011;63206;55.650;37.500;2023-02-01T01:27:21;20.55;;;6.65;;
70385;SDS011;63206;55.650;37.500;2023-02-01T01:29:49;20.65;;;7.22;;
70385;SDS011;63206;55.650;37.500;2023-02-01T01:32:18;19.83;;;7.00;;
70385;SDS011;63206;55.650;37.500;2023-02-01T01:34:50;18.10;;;6.85;;
70385;SDS011;63206;55.650;37.500;2023-02-01T01:37:22;20.23;;;7.18;;
70385;SDS011;63206;55.650;37.500;2023-02-01T01:39:48;19.52;;;7.00;;
70385;SDS011;63206;55.650;37.500;2023-02-01T01:42:19;20.17;;;7.13;;
70385;SDS011;63206;55.650;37.500;2023-02-01T01:47:39;19.27;;;6.85;;
70385;SDS011;63206;55.650;37.500;2023-02-01T01:50:08;21.67;;;7.53;;
70385;SDS011;63206;55.650;37.500;2023-02-01T01:52:38;18.50;;;7.07;;
70385;SDS011;63206;55.650;37.500;2023-02-01T01:55:11;18.48;;;6.85;;
70385;SDS011;63206;55.650;37.500;2023-02-01T01:57:38;20.55;;;7.18;;
70385;SDS011;63206;55.650;37.500;2023-02-01T02:00:11;22.80;;;7.75;;
70385;SDS011;63206;55.650;37.500;2023-02-01T02:02:42;21.30;;;7.30;;
70385;SDS011;63206;55.650;37.500;2023-02-01T02:05:09;22.17;;;7.43;;
70385;SDS011;63206;55.650;37.500;2023-02-01T02:07:42;19.23;;;7.28;;
70385;SDS011;63206;55.650;37.500;2023-02-01T02:10:12;21.20;;;7.38;;
70385;SDS011;63206;55.650;37.500;2023-02-01T02:12:42;20.88;;;7.65;;
70385;SDS011;63206;55.650;37.500;2023-02-01T02:15:11;21.90;;;7.53;;
70385;SDS011;63206;55.650;37.500;2023-02-01T02:38:58;22.60;;;7.43;;
70385;SDS011;63206;55.650;37.500;2023-02-01T02:44:28;18.25;;;7.50;;
70385;SDS011;63206;55.650;37.500;2023-02-01T02:47:27;19.55;;;7.35;;
70385;SDS011;63206;55.650;37.500;2023-02-01T02:50:05;21.95;;;6.90;;
70385;SDS011;63206;55.650;37.500;2023-02-01T02:52:56;22.98;;;8.13;;
70385;SDS011;63206;55.650;37.500;2023-02-01T02:55:50;22.02;;;6.80;;
70385;SDS011;63206;55.650;37.500;2023-02-01T02:58:19;19.30;;;6.80;;
70385;SDS011;63206;55.650;37.500;2023-02-01T03:04:00;21.13;;;7.82;;
70385;SDS011;63206;55.650;37.500;2023-02-01T03:06:38;19.95;;;7.22;;
70385;SDS011;63206;55.650;37.500;2023-02-01T03:09:08;20.00;;;7.72;;
70385;SDS011;63206;55.650;37.500;2023-02-01T03:11:38;22.27;;;7.80;;
70385;SDS011;63206;55.650;37.500;2023-02-01T03:14:23;23.63;;;7.72;;
70385;SDS011;63206;55.650;37.500;2023-02-01T03:16:57;21.42;;;7.60;;
70385;SDS011;63206;55.650;37.500;2023-02-01T03:19:29;20.80;;;7.80;;
70385;SDS011;63206;55.650;37.500;2023-02-01T03:22:08;22.90;;;7.75;;
70385;SDS011;63206;55.650;37.500;2023-02-01T03:24:42;21.52;;;7.82;;
70385;SDS011;63206;55.650;37.500;2023-02-01T03:29:56;20.23;;;7.97;;
70385;SDS011;63206;55.650;37.500;2023-02-01T03:32:26;21.50;;;7.45;;
70385;SDS011;63206;55.650;37.500;2023-02-01T03:34:52;20.40;;;7.97;;
70385;SDS011;63206;55.650;37.500;2023-02-01T03:37:24;24.27;;;7.40;;
70385;SDS011;63206;55.650;37.500;2023-02-01T03:39:59;21.33;;;7.68;;
70385;SDS011;63206;55.650;37.500;2023-02-01T03:42:31;24.13;;;8.32;;
70385;SDS011;63206;55.650;37.500;2023-02-01T03:47:30;19.17;;;7.95;;
70385;SDS011;63206;55.650;37.500;2023-02-01T03:49:59;22.73;;;8.32;;
70385;SDS011;63206;55.650;37.500;2023-02-01T03:55:31;21.88;;;7.95;;
70385;SDS011;63206;55.650;37.500;2023-02-01T03:58:09;22.85;;;7.93;;
70385;SDS011;63206;55.650;37.500;2023-02-01T04:01:00;22.13;;;7.75;;
70385;SDS011;63206;55.650;37.500;2023-02-01T04:03:27;25.20;;;8.70;;
70385;SDS011;63206;55.650;37.500;2023-02-01T04:05:56;22.83;;;8.25;;
70385;SDS011;63206;55.650;37.500;2023-02-01T04:08:28;20.58;;;7.97;;
70385;SDS011;63206;55.650;37.500;2023-02-01T04:10:57;28.85;;;9.27;;
70385;SDS011;63206;55.650;37.500;2023-02-01T04:13:31;24.38;;;8.25;;
70385;SDS011;63206;55.650;37.500;2023-02-01T04:16:06;25.77;;;9.27;;
70385;SDS011;63206;55.650;37.500;2023-02-01T04:18:32;26.80;;;8.52;;
70385;SDS011;63206;55.650;37.500;2023-02-01T04:20:58;23.55;;;8.98;;
70385;SDS011;63206;55.650;37.500;2023-02-01T04:23:27;24.35;;;8.23;;
70385;SDS011;63206;55.650;37.500;2023-02-01T04:25:59;26.58;;;8.45;;
70385;SDS011;63206;55.650;37.500;2023-02-01T04:28:28;30.50;;;9.88;;
70385;SDS011;63206;55.650;37.500;2023-02-01T04:30:57;23.70;;;9.68;;
70385;SDS011;63206;55.650;37.500;2023-02-01T04:33:23;25.27;;;8.63;;
70385;SDS011;63206;55.650;37.500;2023-02-01T04:35:49;24.27;;;8.52;;
70385;SDS011;63206;55.650;37.500;2023-02-01T04:38:15;26.85;;;8.35;;
70385;SDS011;63206;55.650;37.500;2023-02-01T04:40:46;25.98;;;8.95;;
70385;SDS011;63206;55.650;37.500;2023-02-01T04:43:12;24.75;;;8.65;;
70385;SDS011;63206;55.650;37.500;2023-02-01T04:45:38;27.27;;;9.18;;
70385;SDS011;63206;55.650;37.500;2023-02-01T04:48:06;27.48;;;8.68;;
70385;SDS011;63206;55.650;37.500;2023-02-01T04:50:35;25.98;;;8.90;;
70385;SDS011;63206;55.650;37.500;2023-02-01T04:53:09;26.88;;;8.95;;
70385;SDS011;63206;55.650;37.500;2023-02-01T04:58:07;23.05;;;8.85;;
70385;SDS011;63206;55.650;37.500;2023-02-01T05:00:36;23.30;;;8.10;;
70385;SDS011;63206;55.650;37.500;2023-02-01T05:03:02;22.27;;;8.43;;
70385;SDS011;63206;55.650;37.500;2023-02-01T05:05:30;28.40;;;9.05;;
70385;SDS011;63206;55.650;37.500;2023-02-01T05:07:57;25.15;;;8.88;;
70385;SDS011;63206;55.650;37.500;2023-02-01T05:10:26;25.27;;;8.40;;
70385;SDS011;63206;55.650;37.500;2023-02-01T05:12:55;27.67;;;8.30;;
70385;SDS011;63206;55.650;37.500;2023-02-01T05:15:42;25.70;;;8.75;;
70385;SDS011;63206;55.650;37.500;2023-02-01T05:18:10;24.95;;;8.65;;
70385;SDS011;63206;55.650;37.500;2023-02-01T05:20:39;26.48;;;8.75;;
70385;SDS011;63206;55.650;37.500;2023-02-01T05:23:08;27.88;;;8.90;;
70385;SDS011;63206;55.650;37.500;2023-02-01T05:25:34;26.33;;;9.70;;
70385;SDS011;63206;55.650;37.500;2023-02-01T05:28:02;27.25;;;8.88;;
70385;SDS011;63206;55.650;37.500;2023-02-01T05:30:28;23.98;;;8.63;;
70385;SDS011;63206;55.650;37.500;2023-02-01T05:32:55;31.00;;;10.20;;
70385;SDS011;63206;55.650;37.500;2023-02-01T05:35:23;27.90;;;9.10;;
70385;SDS011;63206;55.650;37.500;2023-02-01T05:37:49;26.15;;;9.55;;
70385;SDS011;63206;55.650;37.500;2023-02-01T05:40:18;28.75;;;8.75;;
70385;SDS011;63206;55.650;37.500;2023-02-01T05:42:44;27.83;;;9.25;;
70385;SDS011;63206;55.650;37.500;2023-02-01T05:45:13;27.90;;;8.93;;
70385;SDS011;63206;55.650;37.500;2023-02-01T05:47:38;25.65;;;9.40;;
70385;SDS011;63206;55.650;37.500;2023-02-01T05:50:05;26.60;;;8.90;;
70385;SDS011;63206;55.650;37.500;2023-02-01T05:52:34;30.70;;;10.65;;
70385;SDS011;63206;55.650;37.500;2023-02-01T05:55:02;27.30;;;8.70;;
70385;SDS011;63206;55.650;37.500;2023-02-01T05:57:28;26.17;;;8.60;;
70385;SDS011;63206;55.650;37.500;2023-02-01T06:00:00;29.50;;;10.35;;
70385;SDS011;63206;55.650;37.500;2023-02-01T06:02:41;26.77;;;9.30;;
70385;SDS011;63206;55.650;37.500;2023-02-01T06:05:08;29.40;;;9.30;;
70385;SDS011;63206;55.650;37.500;2023-02-01T06:07:39;32.47;;;9.52;;
70385;SDS011;63206;55.650;37.500;2023-02-01T06:10:08;32.38;;;10.77;;
70385;SDS011;63206;55.650;37.500;2023-02-01T06:12:37;27.33;;;9.10;;
70385;SDS011;63206;55.650;37.500;2023-02-01T06:15:06;28.80;;;10.07;;
70385;SDS011;63206;55.650;37.500;2023-02-01T06:17:35;30.13;;;10.52;;
70385;SDS011;63206;55.650;37.500;2023-02-01T06:20:04;32.30;;;9.73;;
70385;SDS011;63206;55.650;37.500;2023-02-01T06:22:35;32.05;;;10.05;;
70385;SDS011;63206;55.650;37.500;2023-02-01T06:25:05;29.58;;;9.63;;
70385;SDS011;63206;55.650;37.500;2023-02-01T06:27:37;28.23;;;10.00;;
70385;SDS011;63206;55.650;37.500;2023-02-01T06:30:04;26.55;;;9.25;;
70385;SDS011;63206;55.650;37.500;2023-02-01T06:32:34;31.90;;;10.13;;
70385;SDS011;63206;55.650;37.500;2023-02-01T06:35:00;30.17;;;9.52;;
70385;SDS011;63206;55.650;37.500;2023-02-01T06:37:26;35.00;;;10.82;;
70385;SDS011;63206;55.650;37.500;2023-02-01T06:39:57;34.47;;;9.85;;
70385;SDS011;63206;55.650;37.500;2023-02-01T06:42:28;30.75;;;10.38;;
70385;SDS011;63206;55.650;37.500;2023-02-01T06:44:57;30.00;;;9.63;;
70385;SDS011;63206;55.650;37.500;2023-02-01T06:47:23;29.05;;;9.20;;
70385;SDS011;63206;55.650;37.500;2023-02-01T06:49:54;33.42;;;10.32;;
70385;SDS011;63206;55.650;37.500;2023-02-01T06:52:23;30.20;;;9.13;;
70385;SDS011;63206;55.650;37.500;2023-02-01T06:54:58;35.90;;;11.43;;
70385;SDS011;63206;55.650;37.500;2023-02-01T06:57:27;34.38;;;9.60;;
70385;SDS011;63206;55.650;37.500;2023-02-01T06:59:59;33.75;;;10.07;;
70385;SDS011;63206;55.650;37.500;2023-02-01T07:02:30;30.45;;;10.68;;
70385;SDS011;63206;55.650;37.500;2023-02-01T07:05:00;30.63;;;9.75;;
70385;SDS011;63206;55.650;37.500;2023-02-01T07:07:29;35.47;;;11.40;;
70385;SDS011;63206;55.650;37.500;2023-02-01T07:09:57;30.63;;;9.50;;
70385;SDS011;63206;55.650;37.500;2023-02-01T07:12:23;31.48;;;10.70;;
70385;SDS011;63206;55.650;37.500;2023-02-01T07:14:55;31.08;;;9.93;;
70385;SDS011;63206;55.650;37.500;2023-02-01T07:17:24;33.63;;;10.80;;
70385;SDS011;63206;55.650;37.500;2023-02-01T07:19:51;26.92;;;9.27;;
70385;SDS011;63206;55.650;37.500;2023-02-01T07:22:17;31.30;;;10.02;;
70385;SDS011;63206;55.650;37.500;2023-02-01T07:24:43;31.00;;;10.50;;
70385;SDS011;63206;55.650;37.500;2023-02-01T07:27:13;33.67;;;11.40;;
70385;SDS011;63206;55.650;37.500;2023-02-01T07:29:39;28.00;;;9.40;;
70385;SDS011;63206;55.650;37.500;2023-02-01T07:32:07;31.15;;;10.35;;
70385;SDS011;63206;55.650;37.500;2023-02-01T07:34:39;32.17;;;10.93;;
70385;SDS011;63206;55.650;37.500;2023-02-01T07:37:07;30.67;;;10.95;;
70385;SDS011;63206;55.650;37.500;2023-02-01T07:39:33;30.08;;;10.57;;
70385;SDS011;63206;55.650;37.500;2023-02-01T07:41:59;31.50;;;10.52;;
70385;SDS011;63206;55.650;37.500;2023-02-01T07:44:25;32.17;;;10.00;;
70385;SDS011;63206;55.650;37.500;2023-02-01T07:46:54;29.08;;;10.25;;
70385;SDS011;63206;55.650;37.500;2023-02-01T07:49:23;30.58;;;11.27;;
70385;SDS011;63206;55.650;37.500;2023-02-01T07:51:51;31.08;;;10.55;;
70385;SDS011;63206;55.650;37.500;2023-02-01T07:54:20;36.08;;;11.52;;
70385;SDS011;63206;55.650;37.500;2023-02-01T07:56:46;33.85;;;10.85;;
70385;SDS011;63206;55.650;37.500;2023-02-01T07:59:12;32.17;;;10.85;;
70385;SDS011;63206;55.650;37.500;2023-02-01T08:01:44;32.90;;;10.60;;
70385;SDS011;63206;55.650;37.500;2023-02-01T08:04:12;33.20;;;10.65;;
70385;SDS011;63206;55.650;37.500;2023-02-01T08:06:41;31.42;;;10.43;;
70385;SDS011;63206;55.650;37.500;2023-02-01T08:09:10;26.65;;;9.98;;
70385;SDS011;63206;55.650;37.500;2023-02-01T08:11:39;33.95;;;10.45;;
70385;SDS011;63206;55.650;37.500;2023-02-01T08:14:14;32.20;;;9.93;;
70385;SDS011;63206;55.650;37.500;2023-02-01T08:16:45;28.83;;;9.75;;
70385;SDS011;63206;55.650;37.500;2023-02-01T08:21:40;28.48;;;9.77;;
70385;SDS011;63206;55.650;37.500;2023-02-01T08:24:08;30.27;;;10.10;;
70385;SDS011;63206;55.650;37.500;2023-02-01T08:26:38;27.30;;;9.68;;
70385;SDS011;63206;55.650;37.500;2023-02-01T08:29:10;31.02;;;10.40;;
70385;SDS011;63206;55.650;37.500;2023-02-01T08:31:41;28.25;;;10.52;;
70385;SDS011;63206;55.650;37.500;2023-02-01T08:34:10;27.65;;;10.13;;
70385;SDS011;63206;55.650;37.500;2023-02-01T08:36:43;31.98;;;10.52;;
70385;SDS011;63206;55.650;37.500;2023-02-01T08:39:10;25.45;;;9.13;;
70385;SDS011;63206;55.650;37.500;2023-02-01T08:41:36;28.05;;;10.73;;
70385;SDS011;63206;55.650;37.500;2023-02-01T08:44:02;23.23;;;8.95;;
70385;SDS011;63206;55.650;37.500;2023-02-01T08:46:28;28.38;;;9.73;;
70385;SDS011;63206;55.650;37.500;2023-02-01T08:48:54;26.90;;;8.90;;
70385;SDS011;63206;55.650;37.500;2023-02-01T08:51:23;29.05;;;9.70;;
70385;SDS011;63206;55.650;37.500;2023-02-01T08:53:55;27.20;;;9.10;;
70385;SDS011;63206;55.650;37.500;2023-02-01T08:56:24;25.38;;;9.20;;
70385;SDS011;63206;55.650;37.500;2023-02-01T08:58:55;26.60;;;10.45;;
70385;SDS011;63206;55.650;37.500;2023-02-01T09:01:26;28.13;;;9.23;;
70385;SDS011;63206;55.650;37.500;2023-02-01T09:03:55;26.90;;;9.50;;
70385;SDS011;63206;55.650;37.500;2023-02-01T09:06:24;31.23;;;9.18;;
70385;SDS011;63206;55.650;37.500;2023-02-01T09:08:53;25.00;;;9.23;;
70385;SDS011;63206;55.650;37.500;2023-02-01T09:11:25;29.88;;;9.60;;
70385;SDS011;63206;55.650;37.500;2023-02-01T09:13:51;28.45;;;10.02;;
70385;SDS011;63206;55.650;37.500;2023-02-01T09:16:25;28.63;;;9.95;;
70385;SDS011;63206;55.650;37.500;2023-02-01T09:18:51;28.75;;;10.80;;
70385;SDS011;63206;55.650;37.500;2023-02-01T09:21:20;33.90;;;11.02;;
70385;SDS011;63206;55.650;37.500;2023-02-01T09:23:50;27.30;;;10.10;;
70385;SDS011;63206;55.650;37.500;2023-02-01T09:26:19;26.35;;;10.63;;
70385;SDS011;63206;55.650;37.500;2023-02-01T09:28:44;29.45;;;11.23;;
70385;SDS011;63206;55.650;37.500;2023-02-01T09:31:11;31.30;;;11.15;;
70385;SDS011;63206;55.650;37.500;2023-02-01T09:33:42;36.67;;;11.88;;
70385;SDS011;63206;55.650;37.500;2023-02-01T09:36:08;32.05;;;11.02;;
70385;SDS011;63206;55.650;37.500;2023-02-01T09:38:34;34.25;;;11.82;;
70385;SDS011;63206;55.650;37.500;2023-02-01T09:41:07;35.13;;;12.40;;
70385;SDS011;63206;55.650;37.500;2023-02-01T09:43:53;34.60;;;11.52;;
70385;SDS011;63206;55.650;37.500;2023-02-01T09:46:23;33.75;;;11.70;;
70385;SDS011;63206;55.650;37.500;2023-02-01T09:48:53;37.95;;;13.35;;
70385;SDS011;63206;55.650;37.500;2023-02-01T09:51:26;34.85;;;11.75;;
70385;SDS011;63206;55.650;37.500;2023-02-01T09:54:37;32.83;;;12.00;;
70385;SDS011;63206;55.650;37.500;2023-02-01T10:01:54;30.15;;;11.30;;
70385;SDS011;63206;55.650;37.500;2023-02-01T10:04:24;36.38;;;11.80;;
70385;SDS011;63206;55.650;37.500;2023-02-01T10:06:57;32.63;;;11.20;;
70385;SDS011;63206;55.650;37.500;2023-02-01T10:23:30;32.88;;;12.13;;
70385;SDS011;63206;55.650;37.500;2023-02-01T10:28:32;34.30;;;13.07;;
70385;SDS011;63206;55.650;37.500;2023-02-01T10:30:59;31.30;;;11.55;;
70385;SDS011;63206;55.650;37.500;2023-02-01T10:33:48;36.83;;;12.63;;
70385;SDS011;63206;55.650;37.500;2023-02-01T10:36:19;33.00;;;12.00;;
70385;SDS011;63206;55.650;37.500;2023-02-01T10:38:49;38.22;;;13.52;;
70385;SDS011;63206;55.650;37.500;2023-02-01T10:41:19;30.35;;;11.48;;
70385;SDS011;63206;55.650;37.500;2023-02-01T10:43:53;31.30;;;11.63;;
70385;SDS011;63206;55.650;37.500;2023-02-01T10:46:23;35.75;;;13.07;;
70385;SDS011;63206;55.650;37.500;2023-02-01T10:48:52;31.90;;;11.70;;
70385;SDS011;63206;55.650;37.500;2023-02-01T10:51:22;36.85;;;12.32;;
70385;SDS011;63206;55.650;37.500;2023-02-01T10:53:56;30.73;;;11.68;;
70385;SDS011;63206;55.650;37.500;2023-02-01T10:56:29;36.78;;;13.00;;
70385;SDS011;63206;55.650;37.500;2023-02-01T10:59:03;32.45;;;11.32;;
70385;SDS011;63206;55.650;37.500;2023-02-01T11:01:39;36.00;;;12.45;;
70385;SDS011;63206;55.650;37.500;2023-02-01T11:04:12;29.13;;;11.65;;
70385;SDS011;63206;55.650;37.500;2023-02-01T11:06:42;35.70;;;13.45;;
70385;SDS011;63206;55.650;37.500;2023-02-01T11:09:19;31.85;;;12.68;;
70385;SDS011;63206;55.650;37.500;2023-02-01T11:14:25;36.30;;;13.23;;
70385;SDS011;63206;55.650;37.500;2023-02-01T11:16:58;30.95;;;11.32;;
70385;SDS011;63206;55.650;37.500;2023-02-01T11:19:28;35.55;;;13.00;;
70385;SDS011;63206;55.650;37.500;2023-02-01T11:21:58;38.38;;;12.93;;
70385;SDS011;63206;55.650;37.500;2023-02-01T11:24:32;34.80;;;12.48;;
70385;SDS011;63206;55.650;37.500;2023-02-01T11:27:02;39.22;;;12.93;;
70385;SDS011;63206;55.650;37.500;2023-02-01T11:29:50;33.60;;;11.48;;
70385;SDS011;63206;55.650;37.500;2023-02-01T11:32:22;32.75;;;12.18;;
70385;SDS011;63206;55.650;37.500;2023-02-01T11:35:02;31.63;;;11.50;;
70385;SDS011;63206;55.650;37.500;2023-02-01T11:37:41;37.78;;;12.75;;
70385;SDS011;63206;55.650;37.500;2023-02-01T11:42:55;32.30;;;11.95;;
70385;SDS011;63206;55.650;37.500;2023-02-01T11:45:30;35.25;;;12.02;;
70385;SDS011;63206;55.650;37.500;2023-02-01T11:48:15;33.40;;;11.77;;
70385;SDS011;63206;55.650;37.500;2023-02-01T11:53:37;28.38;;;10.60;;
70385;SDS011;63206;55.650;37.500;2023-02-01T12:01:27;29.88;;;10.70;;
70385;SDS011;63206;55.650;37.500;2023-02-01T12:09:21;27.63;;;9.93;;
70385;SDS011;63206;55.650;37.500;2023-02-01T12:14:43;24.08;;;8.80;;
70385;SDS011;63206;55.650;37.500;2023-02-01T12:25:34;23.30;;;9.00;;
70385;SDS011;63206;55.650;37.500;2023-02-01T12:38:50;24.63;;;7.95;;
70385;SDS011;63206;55.650;37.500;2023-02-01T12:43:52;20.55;;;7.60;;
70385;SDS011;63206;55.650;37.500;2023-02-01T12:46:21;21.83;;;7.47;;
70385;SDS011;63206;55.650;37.500;2023-02-01T12:48:56;22.40;;;8.13;;
70385;SDS011;63206;55.650;37.500;2023-02-01T12:51:27;20.15;;;8.20;;
70385;SDS011;63206;55.650;37.500;2023-02-01T12:54:00;25.55;;;8.75;;
70385;SDS011;63206;55.650;37.500;2023-02-01T12:56:30;24.63;;;9.20;;
70385;SDS011;63206;55.650;37.500;2023-02-01T12:59:00;21.60;;;8.02;;
70385;SDS011;63206;55.650;37.500;2023-02-01T13:01:42;23.13;;;8.25;;
70385;SDS011;63206;55.650;37.500;2023-02-01T13:06:59;21.05;;;8.05;;
70385;SDS011;63206;55.650;37.500;2023-02-01T13:09:36;22.90;;;8.48;;
70385;SDS011;63206;55.650;37.500;2023-02-01T13:15:21;22.80;;;8.75;;
70385;SDS011;63206;55.650;37.500;2023-02-01T13:17:51;22.58;;;8.88;;
70385;SDS011;63206;55.650;37.500;2023-02-01T13:20:25;22.88;;;8.73;;
70385;SDS011;63206;55.650;37.500;2023-02-01T13:23:44;21.67;;;7.68;;
70385;SDS011;63206;55.650;37.500;2023-02-01T13:25:55;22.67;;;7.72;;
70385;SDS011;63206;55.650;37.500;2023-02-01T13:28:28;20.42;;;7.43;;
70385;SDS011;63206;55.650;37.500;2023-02-01T13:42:16;16.90;;;6.85;;
70385;SDS011;63206;55.650;37.500;2023-02-01T13:44:56;20.63;;;7.50;;
70385;SDS011;63206;55.650;37.500;2023-02-01T13:47:38;21.33;;;8.35;;
70385;SDS011;63206;55.650;37.500;2023-02-01T13:50:24;22.92;;;8.52;;
70385;SDS011;63206;55.650;37.500;2023-02-01T13:57:48;24.52;;;8.63;;
70385;SDS011;63206;55.650;37.500;2023-02-01T14:10:50;19.90;;;7.18;;
70385;SDS011;63206;55.650;37.500;2023-02-01T14:13:35;18.05;;;6.90;;
70385;SDS011;63206;55.650;37.500;2023-02-01T14:16:10;18.58;;;6.72;;
70385;SDS011;63206;55.650;37.500;2023-02-01T14:23:44;20.23;;;7.13;;
70385;SDS011;63206;55.650;37.500;2023-02-01T14:26:16;20.67;;;7.22;;
70385;SDS011;63206;55.650;37.500;2023-02-01T14:28:44;18.95;;;7.45;;
70385;SDS011;63206;55.650;37.500;2023-02-01T14:31:17;20.02;;;6.97;;
70385;SDS011;63206;55.650;37.500;2023-02-01T14:33:45;20.73;;;7.20;;
70385;SDS011;63206;55.650;37.500;2023-02-01T14:36:17;23.55;;;7.13;;
70385;SDS011;63206;55.650;37.500;2023-02-01T14:38:47;20.45;;;7.50;;
70385;SDS011;63206;55.650;37.500;2023-02-01T14:41:21;19.90;;;7.22;;
70385;SDS011;63206;55.650;37.500;2023-02-01T14:44:36;19.23;;;6.93;;
70385;SDS011;63206;55.650;37.500;2023-02-01T14:49:23;18.48;;;6.25;;
70385;SDS011;63206;55.650;37.500;2023-02-01T14:51:49;19.92;;;6.68;;
70385;SDS011;63206;55.650;37.500;2023-02-01T14:54:16;22.30;;;7.75;;
70385;SDS011;63206;55.650;37.500;2023-02-01T14:56:44;20.48;;;7.07;;
70385;SDS011;63206;55.650;37.500;2023-02-01T14:59:12;20.38;;;7.43;;
70385;SDS011;63206;55.650;37.500;2023-02-01T15:01:47;20.40;;;6.28;;
70385;SDS011;63206;55.650;37.500;2023-02-01T15:04:18;21.60;;;7.28;;
70385;SDS011;63206;55.650;37.500;2023-02-01T15:06:56;21.90;;;7.43;;
70385;SDS011;63206;55.650;37.500;2023-02-01T15:09:31;21.70;;;7.63;;
70385;SDS011;63206;55.650;37.500;2023-02-01T15:14:34;21.13;;;7.70;;
70385;SDS011;63206;55.650;37.500;2023-02-01T15:17:00;18.58;;;6.22;;
70385;SDS011;63206;55.650;37.500;2023-02-01T15:19:27;19.70;;;6.80;;
70385;SDS011;63206;55.650;37.500;2023-02-01T15:21:54;19.67;;;6.97;;
70385;SDS011;63206;55.650;37.500;2023-02-01T15:26:49;20.38;;;6.97;;
70385;SDS011;63206;55.650;37.500;2023-02-01T15:29:15;20.63;;;7.13;;
70385;SDS011;63206;55.650;37.500;2023-02-01T15:31:46;21.75;;;6.82;;
70385;SDS011;63206;55.650;37.500;2023-02-01T15:34:12;20.38;;;6.45;;
70385;SDS011;63206;55.650;37.500;2023-02-01T15:36:41;19.98;;;7.03;;
70385;SDS011;63206;55.650;37.500;2023-02-01T15:39:20;18.27;;;7.22;;
70385;SDS011;63206;55.650;37.500;2023-02-01T15:42:12;22.33;;;6.95;;
70385;SDS011;63206;55.650;37.500;2023-02-01T15:44:49;19.77;;;6.70;;
70385;SDS011;63206;55.650;37.500;2023-02-01T15:47:16;23.75;;;7.57;;
70385;SDS011;63206;55.650;37.500;2023-02-01T15:49:50;20.05;;;7.60;;
70385;SDS011;63206;55.650;37.500;2023-02-01T15:54:43;22.67;;;6.90;;
70385;SDS011;63206;55.650;37.500;2023-02-01T15:57:36;20.65;;;7.82;;
70385;SDS011;63206;55.650;37.500;2023-02-01T16:00:17;22.35;;;8.43;;
70385;SDS011;63206;55.650;37.500;2023-02-01T16:08:20;22.15;;;8.25;;
70385;SDS011;63206;55.650;37.500;2023-02-01T16:10:48;26.38;;;8.63;;
70385;SDS011;63206;55.650;37.500;2023-02-01T16:13:15;25.20;;;8.27;;
70385;SDS011;63206;55.650;37.500;2023-02-01T16:15:44;25.48;;;8.50;;
70385;SDS011;63206;55.650;37.500;2023-02-01T16:18:10;22.88;;;8.25;;
70385;SDS011;63206;55.650;37.500;2023-02-01T16:20:37;23.73;;;8.10;;
70385;SDS011;63206;55.650;37.500;2023-02-01T16:23:10;21.77;;;8.15;;
70385;SDS011;63206;55.650;37.500;2023-02-01T16:25:36;20.58;;;8.02;;
70385;SDS011;63206;55.650;37.500;2023-02-01T16:28:03;23.75;;;8.10;;
70385;SDS011;63206;55.650;37.500;2023-02-01T16:30:31;23.77;;;8.50;;
70385;SDS011;63206;55.650;37.500;2023-02-01T16:33:00;25.80;;;8.88;;
70385;SDS011;63206;55.650;37.500;2023-02-01T16:35:34;24.23;;;7.55;;
70385;SDS011;63206;55.650;37.500;2023-02-01T16:38:10;24.88;;;8.00;;
70385;SDS011;63206;55.650;37.500;2023-02-01T16:40:38;21.25;;;8.15;;
70385;SDS011;63206;55.650;37.500;2023-02-01T16:43:08;21.67;;;8.43;;
70385;SDS011;63206;55.650;37.500;2023-02-01T16:45:36;22.65;;;7.65;;
70385;SDS011;63206;55.650;37.500;2023-02-01T16:48:02;25.25;;;7.63;;
70385;SDS011;63206;55.650;37.500;2023-02-01T16:50:30;20.17;;;7.78;;
70385;SDS011;63206;55.650;37.500;2023-02-01T16:52:57;23.17;;;7.30;;
70385;SDS011;63206;55.650;37.500;2023-02-01T16:55:23;24.90;;;8.02;;
70385;SDS011;63206;55.650;37.500;2023-02-01T16:57:50;19.17;;;6.53;;
70385;SDS011;63206;55.650;37.500;2023-02-01T17:00:17;24.65;;;7.47;;
70385;SDS011;63206;55.650;37.500;2023-02-01T17:02:43;24.05;;;7.80;;
70385;SDS011;63206;55.650;37.500;2023-02-01T17:05:11;22.33;;;7.75;;
70385;SDS011;63206;55.650;37.500;2023-02-01T17:07:37;21.70;;;7.55;;
70385;SDS011;63206;55.650;37.500;2023-02-01T17:10:04;19.23;;;7.07;;
70385;SDS011;63206;55.650;37.500;2023-02-01T17:12:32;19.08;;;6.45;;
70385;SDS011;63206;55.650;37.500;2023-02-01T17:14:58;18.27;;;7.47;;
70385;SDS011;63206;55.650;37.500;2023-02-01T17:17:25;17.83;;;6.43;;
70385;SDS011;63206;55.650;37.500;2023-02-01T17:19:53;16.90;;;6.88;;
70385;SDS011;63206;55.650;37.500;2023-02-01T17:22:20;17.20;;;6.07;;